Woodbury, Indiana
Current Conditions -  °F | °C
As of 11:55 PM on Monday 20 Oct 2014 (Local Time) from KMQJ Reporting Station
Scattered Clouds Scattered Clouds  
Wind Chill: 12°   Ceiling: Unl
Heat Index: 12°   Visibility: 10mi
Dew Point:   Wind: 7mph
Humidity: 67%   Direction: 360°N
Pressure: 29.96"   Gusts: NA
Location:  39.9249°N, 85.9217°W
Report Text: KMQJ 210355Z AUTO 36006KT 10SM SCT043 SCT050 12/06 A2996 RMK AO1
Loading
Personal Weather Stations






























Interactive Weather Map
Tropical Storm Tracking
New forecast layout! Learn more

10-Day Weather Forecast

Advertisements
Track Severe Weather on mobile